createdAt,value
2023-01-05T00:01:36.933Z,11.40
2023-01-05T00:04:23.702Z,11.40
2023-01-05T00:07:10.357Z,11.40
2023-01-05T00:09:57.903Z,11.30
2023-01-05T00:13:01.661Z,11.20
2023-01-05T00:16:02.207Z,11.10
2023-01-05T00:19:06.442Z,11.00
2023-01-05T00:22:10.457Z,10.80
2023-01-05T00:24:58.586Z,10.70
2023-01-05T00:27:47.932Z,10.70
2023-01-05T00:30:38.672Z,10.60
2023-01-05T00:33:25.085Z,10.60
2023-01-05T00:36:12.143Z,10.60
2023-01-05T00:38:58.755Z,10.60
2023-01-05T00:41:46.454Z,10.60
2023-01-05T00:44:33.007Z,10.60
2023-01-05T00:47:19.435Z,10.50
2023-01-05T00:50:07.191Z,10.50
2023-01-05T00:52:53.897Z,10.50
2023-01-05T00:55:40.062Z,10.50
2023-01-05T00:58:27.834Z,10.50
2023-01-05T01:01:14.990Z,10.50
2023-01-05T01:04:01.466Z,10.50
2023-01-05T01:06:48.426Z,10.40
2023-01-05T01:09:35.576Z,10.50
2023-01-05T01:12:21.880Z,10.40
2023-01-05T01:15:11.041Z,10.60
2023-01-05T01:18:00.786Z,10.60
2023-01-05T01:20:47.258Z,10.70
2023-01-05T01:23:34.540Z,10.80
2023-01-05T01:26:22.676Z,10.80
2023-01-05T01:29:08.995Z,10.90
2023-01-05T01:31:56.730Z,11.00
2023-01-05T01:34:46.141Z,11.10
2023-01-05T01:37:32.572Z,11.10
2023-01-05T01:40:19.093Z,11.10
2023-01-05T01:43:12.391Z,11.10
2023-01-05T01:45:59.047Z,11.10
2023-01-05T01:48:50.336Z,11.10
2023-01-05T01:51:41.465Z,11.00
2023-01-05T01:54:28.595Z,11.00
2023-01-05T01:57:16.110Z,11.00
2023-01-05T02:00:07.432Z,10.90
2023-01-05T02:02:56.575Z,11.00
2023-01-05T02:05:44.353Z,10.90
2023-01-05T02:08:32.203Z,10.90
2023-01-05T02:11:34.296Z,10.90
2023-01-05T02:14:33.031Z,10.90
2023-01-05T02:17:29.428Z,10.90
2023-01-05T02:20:39.301Z,10.80
2023-01-05T02:23:57.281Z,10.90
2023-01-05T02:27:25.266Z,11.00
2023-01-05T02:31:00.528Z,10.90
2023-01-05T02:34:09.452Z,10.90
2023-01-05T02:37:01.692Z,10.80
2023-01-05T02:39:52.893Z,10.80
2023-01-05T02:42:42.219Z,10.90
2023-01-05T02:45:29.044Z,11.00
2023-01-05T02:48:16.799Z,11.00
2023-01-05T02:51:08.498Z,11.00
2023-01-05T02:54:01.200Z,11.00
2023-01-05T02:56:54.014Z,11.00
2023-01-05T02:59:43.781Z,11.00
2023-01-05T03:02:32.900Z,10.90
2023-01-05T03:05:26.676Z,10.90
2023-01-05T03:08:26.443Z,11.00
2023-01-05T03:11:35.117Z,11.00
2023-01-05T03:14:26.752Z,11.00
2023-01-05T03:17:18.470Z,10.90
2023-01-05T03:20:06.211Z,10.90
2023-01-05T03:23:13.264Z,10.80
2023-01-05T03:26:17.666Z,10.80
2023-01-05T03:29:22.729Z,10.80
2023-01-05T03:32:35.721Z,10.70
2023-01-05T03:35:33.775Z,10.70
2023-01-05T03:38:28.069Z,10.70
2023-01-05T03:41:17.746Z,10.70
2023-01-05T03:44:04.308Z,10.70
2023-01-05T03:46:51.122Z,10.80
2023-01-05T03:49:38.218Z,10.80
2023-01-05T03:52:24.475Z,10.80
2023-01-05T03:55:12.358Z,10.80
2023-01-05T03:57:58.697Z,10.90
2023-01-05T04:00:44.918Z,10.90
2023-01-05T04:03:32.398Z,10.90
2023-01-05T04:06:19.185Z,10.90
2023-01-05T04:09:06.045Z,10.80
2023-01-05T04:11:53.729Z,10.70
2023-01-05T04:17:26.861Z,10.40
2023-01-05T04:20:13.676Z,10.40
2023-01-05T04:23:00.309Z,10.40
2023-01-05T04:25:47.847Z,10.40
2023-01-05T04:28:35.725Z,10.50
2023-01-05T04:31:22.310Z,10.40
2023-01-05T04:34:09.009Z,10.50
2023-01-05T04:36:55.394Z,10.40
2023-01-05T04:39:41.634Z,10.40
2023-01-05T04:42:28.155Z,10.50
2023-01-05T04:45:16.113Z,10.50
2023-01-05T04:48:02.983Z,10.40
2023-01-05T04:50:53.805Z,10.40
2023-01-05T04:53:40.265Z,10.50
2023-01-05T04:56:26.607Z,10.40
2023-01-05T04:59:13.074Z,10.40
2023-01-05T05:02:00.703Z,10.50
2023-01-05T05:04:47.649Z,10.50
2023-01-05T05:07:34.063Z,10.50
2023-01-05T05:10:20.395Z,10.50
2023-01-05T05:13:06.735Z,10.50
2023-01-05T05:15:53.147Z,10.50
2023-01-05T05:18:40.753Z,10.50
2023-01-05T05:21:27.273Z,10.50
2023-01-05T05:24:13.716Z,10.50
2023-01-05T05:27:00.457Z,10.50
2023-01-05T05:29:46.716Z,10.40
2023-01-05T05:32:33.093Z,10.40
2023-01-05T05:35:21.038Z,10.40
2023-01-05T05:38:07.468Z,10.30
2023-01-05T05:40:53.839Z,10.30
2023-01-05T05:43:40.056Z,10.40
2023-01-05T05:46:26.328Z,10.40
2023-01-05T05:49:12.747Z,10.30
2023-01-05T05:52:00.459Z,10.30
2023-01-05T05:54:47.176Z,10.40
2023-01-05T05:57:33.747Z,10.40
2023-01-05T06:00:20.376Z,10.30
2023-01-05T06:03:06.992Z,10.20
2023-01-05T06:05:54.299Z,10.20
2023-01-05T06:08:42.156Z,10.20
2023-01-05T06:11:28.398Z,10.20
2023-01-05T06:14:14.777Z,10.20
2023-01-05T06:17:01.599Z,10.20
2023-01-05T06:19:47.889Z,10.20
2023-01-05T06:22:35.868Z,10.30
2023-01-05T06:25:23.552Z,10.50
2023-01-05T06:28:09.883Z,10.70
2023-01-05T06:30:56.288Z,10.80
2023-01-05T06:33:42.608Z,11.00
2023-01-05T06:36:29.143Z,11.20
2023-01-05T06:39:15.643Z,11.10
2023-01-05T06:42:03.341Z,10.90
2023-01-05T06:44:49.621Z,10.80
2023-01-05T06:47:36.134Z,10.60
2023-01-05T06:50:22.547Z,10.50
2023-01-05T06:53:09.120Z,10.40
2023-01-05T06:55:55.817Z,10.40
2023-01-05T06:58:43.476Z,10.30
2023-01-05T07:01:30.132Z,10.30
2023-01-05T07:04:16.736Z,10.30
2023-01-05T07:07:03.127Z,10.40
2023-01-05T07:09:50.085Z,10.30
2023-01-05T07:12:36.794Z,10.20
2023-01-05T07:15:24.537Z,10.40
2023-01-05T07:18:12.161Z,10.30
2023-01-05T07:21:00.715Z,10.30
2023-01-05T07:23:47.411Z,10.30
2023-01-05T07:26:33.821Z,10.30
2023-01-05T07:29:20.382Z,10.40
2023-01-05T07:32:08.317Z,10.40
2023-01-05T07:34:56.122Z,10.40
2023-01-05T07:37:44.339Z,10.30
2023-01-05T07:40:31.038Z,10.40
2023-01-05T07:43:17.428Z,10.40
2023-01-05T07:46:05.713Z,10.40
2023-01-05T07:48:53.551Z,10.40
2023-01-05T07:51:39.909Z,10.40
2023-01-05T07:54:27.384Z,10.40
2023-01-05T07:57:13.613Z,10.30
2023-01-05T08:00:00.015Z,10.40
2023-01-05T08:02:47.087Z,10.40
2023-01-05T08:05:36.356Z,10.40
2023-01-05T08:08:24.635Z,10.40
2023-01-05T08:11:15.304Z,10.40
2023-01-05T08:14:02.664Z,10.40
2023-01-05T08:16:49.481Z,10.40
2023-01-05T08:19:35.978Z,10.30
2023-01-05T08:22:23.659Z,10.40
2023-01-05T08:25:10.862Z,10.40
2023-01-05T08:27:57.466Z,10.40
2023-01-05T08:30:44.057Z,10.50
2023-01-05T08:33:30.803Z,10.50
2023-01-05T08:36:19.926Z,10.60
2023-01-05T08:39:07.926Z,10.60
2023-01-05T08:42:00.430Z,10.60
2023-01-05T08:44:48.664Z,10.70
2023-01-05T08:47:34.978Z,10.70
2023-01-05T08:50:21.286Z,10.80
2023-01-05T08:53:07.743Z,10.70
2023-01-05T08:55:55.600Z,10.60
2023-01-05T08:58:42.640Z,10.70
2023-01-05T09:01:29.878Z,10.70
2023-01-05T09:04:16.518Z,10.70
2023-01-05T09:07:02.950Z,10.80
2023-01-05T09:09:49.333Z,10.90
2023-01-05T09:12:37.984Z,11.00
2023-01-05T09:15:24.594Z,11.00
2023-01-05T09:18:11.003Z,11.00
2023-01-05T09:20:57.677Z,10.90
2023-01-05T09:23:44.947Z,10.90
2023-01-05T09:26:31.636Z,11.00
2023-01-05T09:29:20.034Z,10.90
2023-01-05T09:32:07.509Z,10.80
2023-01-05T09:34:53.848Z,10.80
2023-01-05T09:37:40.294Z,10.90
2023-01-05T09:40:28.129Z,10.80
2023-01-05T09:43:22.950Z,10.90
2023-01-05T09:46:16.421Z,10.70
2023-01-05T09:49:05.442Z,10.70
2023-01-05T09:51:55.912Z,10.60
2023-01-05T09:54:42.484Z,10.70
2023-01-05T09:57:30.232Z,10.70
2023-01-05T10:00:19.150Z,10.90
2023-01-05T10:03:29.238Z,10.90
2023-01-05T10:06:18.849Z,10.80
2023-01-05T10:09:09.392Z,10.70
2023-01-05T10:12:18.331Z,10.80
2023-01-05T10:15:11.372Z,10.70
2023-01-05T10:17:58.135Z,10.70
2023-01-05T10:21:00.263Z,10.70
2023-01-05T10:24:00.102Z,10.70
2023-01-05T10:27:24.315Z,10.70
2023-01-05T10:30:14.146Z,10.90
2023-01-05T10:33:25.888Z,11.30
2023-01-05T10:36:41.383Z,11.60
2023-01-05T10:39:36.438Z,12.00
2023-01-05T10:42:33.524Z,12.20
2023-01-05T10:45:21.558Z,12.30
2023-01-05T10:48:14.249Z,12.50
2023-01-05T10:51:01.437Z,12.70
2023-01-05T10:53:49.945Z,12.70
2023-01-05T10:56:36.172Z,12.80
2023-01-05T10:59:22.741Z,12.90
2023-01-05T11:02:13.625Z,13.00
2023-01-05T11:05:05.362Z,12.70
2023-01-05T11:07:54.441Z,12.50
2023-01-05T11:10:49.877Z,12.20
2023-01-05T11:13:38.958Z,12.20
2023-01-05T11:16:28.213Z,12.10
2023-01-05T11:19:18.315Z,11.90
2023-01-05T11:22:04.810Z,11.90
2023-01-05T11:24:51.238Z,11.80
2023-01-05T11:27:38.974Z,11.80
2023-01-05T11:30:25.791Z,11.80
2023-01-05T11:33:25.297Z,11.70
2023-01-05T11:36:15.923Z,11.70
2023-01-05T11:39:02.776Z,11.90
2023-01-05T11:41:49.477Z,11.90
2023-01-05T11:44:37.842Z,11.80
2023-01-05T11:47:33.417Z,11.70
2023-01-05T11:50:25.054Z,11.70
2023-01-05T11:53:25.984Z,11.60
2023-01-05T11:56:22.646Z,11.50
2023-01-05T11:59:29.895Z,11.40
2023-01-05T12:02:44.227Z,11.30
2023-01-05T12:05:41.457Z,11.20
2023-01-05T12:08:32.166Z,11.30
2023-01-05T12:11:20.754Z,11.30
2023-01-05T12:14:24.600Z,11.30
2023-01-05T12:17:15.016Z,11.30
2023-01-05T12:20:14.118Z,11.40
2023-01-05T12:23:32.224Z,11.40
2023-01-05T12:26:25.489Z,11.20
2023-01-05T12:36:27.076Z,11.10
2023-01-05T12:39:45.343Z,11.10
2023-01-05T12:42:47.311Z,11.10
2023-01-05T12:46:03.761Z,11.00
2023-01-05T12:48:55.832Z,11.00
2023-01-05T12:51:46.973Z,11.00
2023-01-05T12:54:45.597Z,11.10
2023-01-05T12:57:37.499Z,10.90
2023-01-05T13:00:26.270Z,10.90
2023-01-05T13:03:22.187Z,10.80
2023-01-05T13:06:14.124Z,10.70
2023-01-05T13:09:05.925Z,10.70
2023-01-05T13:11:56.732Z,10.70
2023-01-05T13:14:52.586Z,10.80
2023-01-05T13:17:43.855Z,10.80
2023-01-05T13:20:39.702Z,10.90
2023-01-05T13:23:28.866Z,10.90
2023-01-05T13:26:18.714Z,10.90
2023-01-05T13:29:05.762Z,10.80
2023-01-05T13:32:14.208Z,10.90
2023-01-05T13:35:46.330Z,10.80
2023-01-05T13:39:08.468Z,10.90
2023-01-05T13:42:22.933Z,10.90
2023-01-05T13:45:32.578Z,10.90
2023-01-05T13:48:45.394Z,10.80
2023-01-05T13:51:57.081Z,10.80
2023-01-05T13:55:00.499Z,10.90
2023-01-05T13:57:49.664Z,10.90
2023-01-05T14:00:42.918Z,10.90
2023-01-05T14:03:33.301Z,10.90
2023-01-05T14:06:23.945Z,11.00
2023-01-05T14:09:17.452Z,10.90
2023-01-05T14:12:27.292Z,11.00
2023-01-05T14:15:45.365Z,11.00
2023-01-05T14:18:50.972Z,10.90
2023-01-05T14:22:16.875Z,10.90
2023-01-05T14:25:45.273Z,10.80
2023-01-05T14:28:49.120Z,10.80
2023-01-05T14:31:39.304Z,10.80
2023-01-05T14:34:27.417Z,10.90
2023-01-05T14:37:23.829Z,10.90
2023-01-05T14:40:35.665Z,10.90
2023-01-05T14:43:30.401Z,10.80
2023-01-05T14:46:17.097Z,10.80
2023-01-05T14:49:07.800Z,10.80
2023-01-05T14:51:56.346Z,10.70
2023-01-05T14:55:26.905Z,10.70
2023-01-05T14:58:53.425Z,10.50
2023-01-05T15:01:48.377Z,10.40
2023-01-05T15:04:39.357Z,10.30
2023-01-05T15:10:52.668Z,10.20
2023-01-05T15:14:26.431Z,10.20
2023-01-05T15:17:30.177Z,10.10
2023-01-05T15:20:58.743Z,10.10
2023-01-05T15:24:07.642Z,10.00
2023-01-05T15:27:14.197Z,10.00
2023-01-05T15:30:43.120Z,10.00
2023-01-05T15:33:36.727Z,10.00
2023-01-05T15:36:29.106Z,9.90
2023-01-05T15:39:26.179Z,9.90
2023-01-05T15:42:17.460Z,9.90
2023-01-05T15:45:03.926Z,9.90
2023-01-05T15:47:51.104Z,9.90
2023-01-05T15:50:44.974Z,9.90
2023-01-05T15:53:35.458Z,9.90
2023-01-05T15:56:30.913Z,9.90
2023-01-05T15:59:29.397Z,9.90
2023-01-05T16:02:23.972Z,9.90
2023-01-05T16:05:13.135Z,9.80
2023-01-05T16:08:01.582Z,9.80
2023-01-05T16:10:52.655Z,9.70
2023-01-05T16:13:42.298Z,9.70
2023-01-05T16:19:43.919Z,9.70
2023-01-05T16:22:34.359Z,9.70
2023-01-05T16:25:23.325Z,9.80
2023-01-05T16:28:17.286Z,9.80
2023-01-05T16:31:14.151Z,9.80
2023-01-05T16:34:06.092Z,9.80
2023-01-05T16:37:03.925Z,9.70
2023-01-05T16:39:50.383Z,9.80
2023-01-05T16:42:50.325Z,9.80
2023-01-05T16:45:37.159Z,9.80
2023-01-05T16:48:49.870Z,9.80
2023-01-05T16:51:41.831Z,9.60
2023-01-05T16:54:36.718Z,9.60
2023-01-05T16:57:33.688Z,9.60
2023-01-05T17:00:36.910Z,9.60
2023-01-05T17:03:30.259Z,9.60
2023-01-05T17:06:25.762Z,9.60
2023-01-05T17:09:20.818Z,9.60
2023-01-05T17:12:07.215Z,9.60
2023-01-05T17:14:54.383Z,9.60
2023-01-05T17:17:40.669Z,9.60
2023-01-05T17:20:30.295Z,9.60
2023-01-05T17:23:22.547Z,9.60
2023-01-05T17:26:12.527Z,9.60
2023-01-05T17:29:00.441Z,9.60
2023-01-05T17:31:47.168Z,9.60
2023-01-05T17:34:33.497Z,9.70
2023-01-05T17:37:19.884Z,9.60
2023-01-05T17:40:09.460Z,9.70
2023-01-05T17:42:56.235Z,9.70
2023-01-05T17:45:44.734Z,9.70
2023-01-05T17:48:31.184Z,9.60
2023-01-05T17:51:17.707Z,9.70
2023-01-05T17:54:04.038Z,9.60
2023-01-05T17:56:51.673Z,9.50
2023-01-05T17:59:38.121Z,9.60
2023-01-05T18:02:26.020Z,9.50
2023-01-05T18:05:13.446Z,9.60
2023-01-05T18:08:00.028Z,9.60
2023-01-05T18:10:47.622Z,9.60
2023-01-05T18:13:36.132Z,9.60
2023-01-05T18:16:23.587Z,9.50
2023-01-05T18:19:11.227Z,9.50
2023-01-05T18:21:57.491Z,9.60
2023-01-05T18:24:44.496Z,9.60
2023-01-05T18:27:35.378Z,9.60
2023-01-05T18:30:23.164Z,9.60
2023-01-05T18:33:09.495Z,9.50
2023-01-05T18:38:47.419Z,9.40
2023-01-05T18:41:34.215Z,9.40
2023-01-05T18:44:20.914Z,9.40
2023-01-05T18:47:09.302Z,9.40
2023-01-05T18:49:58.011Z,9.30
2023-01-05T18:52:44.358Z,9.30
2023-01-05T18:55:30.743Z,9.20
2023-01-05T18:58:17.069Z,9.30
2023-01-05T19:01:09.212Z,9.30
2023-01-05T19:03:57.396Z,9.20
2023-01-05T19:06:43.899Z,9.30
2023-01-05T19:09:30.531Z,9.30
2023-01-05T19:12:17.024Z,9.30
2023-01-05T19:15:03.442Z,9.30
2023-01-05T19:17:53.226Z,9.40
2023-01-05T19:20:40.923Z,9.40
2023-01-05T19:23:27.861Z,9.40
2023-01-05T19:26:14.749Z,9.40
2023-01-05T19:29:01.708Z,9.30
2023-01-05T19:31:49.157Z,9.30
2023-01-05T19:34:35.588Z,9.40
2023-01-05T19:37:23.405Z,9.40
2023-01-05T19:40:11.177Z,9.40
2023-01-05T19:42:57.425Z,9.40
2023-01-05T19:45:43.791Z,9.40
2023-01-05T19:48:33.794Z,9.30
2023-01-05T19:51:23.254Z,9.30
2023-01-05T19:54:13.255Z,9.30
2023-01-05T19:56:59.526Z,9.40
2023-01-05T19:59:45.830Z,9.30
2023-01-05T20:02:32.423Z,9.40
2023-01-05T20:05:18.737Z,9.40
2023-01-05T20:08:05.794Z,9.40
2023-01-05T20:10:53.617Z,9.40
2023-01-05T20:13:40.885Z,9.40
2023-01-05T20:16:27.301Z,9.40
2023-01-05T20:19:14.492Z,9.40
2023-01-05T20:22:03.032Z,9.40
2023-01-05T20:24:49.320Z,9.40
2023-01-05T20:27:37.031Z,9.40
2023-01-05T20:30:23.735Z,9.40
2023-01-05T20:33:09.999Z,9.50
2023-01-05T20:35:56.533Z,9.40
2023-01-05T20:38:42.806Z,9.50
2023-01-05T20:41:32.621Z,9.50
2023-01-05T20:44:21.963Z,9.50
2023-01-05T20:47:09.202Z,9.50
2023-01-05T20:49:55.773Z,9.50
2023-01-05T20:52:41.961Z,9.50
2023-01-05T20:55:28.405Z,9.60
2023-01-05T20:58:14.756Z,9.60
2023-01-05T21:01:10.136Z,9.60
2023-01-05T21:03:59.389Z,9.60
2023-01-05T21:06:45.837Z,9.60
2023-01-05T21:09:33.717Z,9.60
2023-01-05T21:12:21.364Z,9.60
2023-01-05T21:15:09.009Z,9.50
2023-01-05T21:17:56.952Z,9.50
2023-01-05T21:20:43.445Z,9.40
2023-01-05T21:23:29.823Z,9.50
2023-01-05T21:26:17.276Z,9.40
2023-01-05T21:29:05.658Z,9.40
2023-01-05T21:31:52.274Z,9.40
2023-01-05T21:34:39.765Z,9.40
2023-01-05T21:37:26.068Z,9.40
2023-01-05T21:40:13.136Z,9.30
2023-01-05T21:43:02.283Z,9.30
2023-01-05T21:45:48.572Z,9.30
2023-01-05T21:48:35.444Z,9.40
2023-01-05T21:51:40.384Z,9.50
2023-01-05T21:54:44.929Z,9.50
2023-01-05T21:57:31.408Z,9.40
2023-01-05T22:00:17.998Z,9.40
2023-01-05T22:03:04.692Z,9.30
2023-01-05T22:05:51.254Z,9.20
2023-01-05T22:08:38.985Z,9.20
2023-01-05T22:11:25.566Z,9.20
2023-01-05T22:14:12.043Z,9.20
2023-01-05T22:16:58.409Z,9.10
2023-01-05T22:19:44.771Z,9.10
2023-01-05T22:22:31.010Z,9.00
2023-01-05T22:25:18.719Z,8.90
2023-01-05T22:28:06.117Z,8.80
2023-01-05T22:30:52.778Z,8.80
2023-01-05T22:33:41.089Z,8.70
2023-01-05T22:36:29.007Z,8.70
2023-01-05T22:39:15.533Z,8.80
2023-01-05T22:42:03.313Z,8.70
2023-01-05T22:44:49.747Z,8.70
2023-01-05T22:47:36.285Z,8.70
2023-01-05T22:50:22.821Z,8.70
2023-01-05T22:53:09.184Z,8.60
2023-01-05T22:55:55.599Z,8.60
2023-01-05T22:58:43.622Z,8.50
2023-01-05T23:01:32.025Z,8.40
2023-01-05T23:04:18.787Z,8.30
2023-01-05T23:07:05.284Z,8.20
2023-01-05T23:09:51.483Z,8.30
2023-01-05T23:12:38.240Z,8.30
2023-01-05T23:15:26.073Z,8.30
2023-01-05T23:18:12.528Z,8.30
2023-01-05T23:21:00.631Z,8.30
2023-01-05T23:23:51.634Z,8.30
2023-01-05T23:26:37.975Z,8.40
2023-01-05T23:29:25.933Z,8.40
2023-01-05T23:32:14.245Z,8.40
2023-01-05T23:35:00.639Z,8.50
2023-01-05T23:37:46.901Z,8.50
2023-01-05T23:40:33.456Z,8.40
2023-01-05T23:43:21.692Z,8.40
2023-01-05T23:46:09.575Z,8.40
2023-01-05T23:48:57.090Z,8.50
2023-01-05T23:51:43.513Z,8.50
2023-01-05T23:54:29.798Z,8.60
2023-01-05T23:57:16.912Z,8.60
